CheckWX is a tool to help pilots better visualize weather data.  It is not intended as a substitute for an official pre-flight weather briefing.

19:53:56 UTC

EGGW METAR
London Luton Airport
London, United Kingdom
Current

34 mins ago

EGGW 291920Z AUTO 21012KT 9999 NCD 06/04 Q1009
Observed
Jan-29 @ 19:20 UTC
Wind
  • 210° at 12 KTS
Visibility
10,000+ meters
Flight Rules
VFR
Cloud Levels
  • Clear skies
Temperature
C / 43°F
Dewpoint
C / 39°F
Humidity
87%
Altimeter
29.79" Hg
Pressure
1008.92 hPa
Previous

1 hour ago

EGGW 291850Z AUTO 22014KT 9999 NCD 06/03 Q1009
Observed
Jan-29 @ 18:50 UTC
Wind
  • 220° at 14 KTS
Visibility
10,000+ meters
Flight Rules
VFR
Cloud Levels
  • Clear skies
Temperature
C / 43°F
Dewpoint
C / 37°F
Humidity
81%
Altimeter
29.79" Hg
Pressure
1008.92 hPa
Previous

2 hours ago

EGGW 291820Z AUTO 21010KT 9999 FEW042 06/03 Q1010
Observed
Jan-29 @ 18:20 UTC
Wind
  • 210° at 10 KTS
Visibility
10,000+ meters
Flight Rules
VFR
Cloud Levels
  • Few at 4,200' AGL
Temperature
C / 43°F
Dewpoint
C / 37°F
Humidity
81%
Altimeter
29.82" Hg
Pressure
1009.92 hPa